Time;durP1;ratioP1;P1;durP2;ratioP2;P2;SDS_P1;SDS_P2;PMS_P1;PMS_P2;Temp;Humidity;BMP_temperature;BMP_pressure;BME280_temperature;BME280_humidity;BME280_pressure;Samples;Min_cycle;Max_cycle;Signal;HPM_P1;HPM_P2
2023/06/26 00:01:50;;;;;;;;;;;;;;;;;;5006130;28;19921;-70
2023/06/26 00:04:37;;;;;;;;;;;;;;;;;;5016177;28;19917;-70
2023/06/26 00:07:23;;;;;;;;;;;;;;;;;;5009190;28;19918;-70
2023/06/26 00:10:10;;;;;;;;;;;;;;;;;;5000959;28;20377;-69
2023/06/26 00:12:56;;;;;;;;;;;;;;;;;;5005451;28;19918;-69
2023/06/26 00:15:43;;;;;;;;;;;;;;;;;;5006248;28;19914;-68
2023/06/26 00:18:29;;;;;;;;;;;;;;;;;;5002816;28;19932;-70
2023/06/26 00:21:16;;;;;;;;;;;;;;;;;;4998945;28;19937;-69
2023/06/26 00:24:02;;;;;;;;;;;;;;;;;;4997542;28;20004;-70
2023/06/26 00:26:49;;;;;;;;;;;;;;;;;;5013890;28;20526;-71
2023/06/26 00:29:36;;;;;;;;;;;;;;;;;;4992116;28;19924;-70
2023/06/26 00:32:22;;;;;;;;;;;;;;;;;;4988235;28;19914;-70
2023/06/26 00:35:09;;;;;;;;;;;;;;;;;;4993411;28;20783;-70
2023/06/26 00:37:55;;;;;;;;;;;;;;;;;;4992364;28;19925;-71
2023/06/26 00:40:41;;;;;;;;;;;;;;;;;;4997386;28;19930;-70
2023/06/26 00:43:28;;;;;;;;;;;;;;;;;;5000590;28;19921;-70
2023/06/26 00:46:15;;;;;;;;;;;;;;;;;;5002392;28;19936;-70
2023/06/26 00:49:01;;;;;;;;;;;;;;;;;;5005153;28;19928;-72
2023/06/26 00:51:48;;;;;;;;;;;;;;;;;;5000881;28;19922;-71
2023/06/26 00:54:34;;;;;;;;;;;;;;;;;;5003899;28;19967;-71
2023/06/26 00:57:20;;;;;;;;;;;;;;;;;;4997105;28;19917;-70
2023/06/26 01:00:07;;;;;;;;;;;;;;;;;;5000014;28;19926;-70
2023/06/26 01:02:55;;;;;;;;;;;;;;;;;;5003358;28;19925;-71
2023/06/26 01:05:45;;;;;;;;;;;;;;;;;;4997133;28;20300;-70
2023/06/26 01:08:31;;;;;;;;;;;;;;;;;;5001026;28;19917;-71
2023/06/26 01:11:18;;;;;;;;;;;;;;;;;;5005440;28;19921;-71
2023/06/26 01:14:04;;;;;;;;;;;;;;;;;;5003227;28;20270;-71
2023/06/26 01:16:51;;;;;;;;;;;;;;;;;;4997854;28;19925;-71
2023/06/26 01:19:38;;;;;;;;;;;;;;;;;;4997965;28;19929;-70
2023/06/26 01:22:26;;;;;;;;;;;;;;;;;;5001239;28;19917;-70
2023/06/26 01:25:17;;;;;;;;;;;;;;;;;;5000654;28;20383;-70
2023/06/26 01:28:05;;;;;;;;;;;;;;;;;;5003274;28;22911;-70
2023/06/26 01:30:51;;;;;;;;;;;;;;;;;;5003137;28;19950;-70
2023/06/26 01:33:37;;;;;;;;;;;;;;;;;;5003576;28;19928;-70
2023/06/26 01:36:24;;;;;;;;;;;;;;;;;;4992852;28;19922;-70
2023/06/26 01:39:10;;;;;;;;;;;;;;;;;;4996143;28;19925;-71
2023/06/26 01:41:57;;;;;;;;;;;;;;;;;;4998461;28;19932;-70
2023/06/26 01:44:43;;;;;;;;;;;;;;;;;;5004132;28;20300;-70
2023/06/26 01:47:30;;;;;;;;;;;;;;;;;;4996679;28;19924;-70
2023/06/26 01:50:16;;;;;;;;;;;;;;;;;;5000852;28;19921;-70
2023/06/26 01:53:03;;;;;;;;;;;;;;;;;;4997437;28;20000;-70
2023/06/26 01:55:49;;;;;;;;;;;;;;;;;;5006907;28;19917;-71
2023/06/26 01:58:36;;;;;;;;;;;;;;;;;;4996591;28;19921;-69
2023/06/26 02:01:22;;;;;;;;;;;;;;;;;;4995067;28;19921;-70
2023/06/26 02:04:09;;;;;;;;;;;;;;;;;;5001439;28;19952;-69
2023/06/26 02:06:55;;;;;;;;;;;;;;;;;;5000085;28;19926;-70
2023/06/26 02:09:43;;;;;;;;;;;;;;;;;;5001452;28;19928;-70
2023/06/26 02:12:29;;;;;;;;;;;;;;;;;;4995725;28;20313;-69
2023/06/26 02:15:16;;;;;;;;;;;;;;;;;;4999740;28;19928;-70
2023/06/26 02:18:02;;;;;;;;;;;;;;;;;;5005145;28;20296;-70
2023/06/26 02:20:49;;;;;;;;;;;;;;;;;;5007844;28;19920;-71
2023/06/26 02:23:35;;;;;;;;;;;;;;;;;;4993877;28;19917;-70
2023/06/26 02:26:22;;;;;;;;;;;;;;;;;;5001558;28;20298;-69
2023/06/26 02:29:08;;;;;;;;;;;;;;;;;;5000490;28;19933;-70
2023/06/26 02:31:55;;;;;;;;;;;;;;;;;;4998171;28;19921;-70
2023/06/26 02:34:41;;;;;;;;;;;;;;;;;;5004044;28;19917;-70
2023/06/26 02:37:28;;;;;;;;;;;;;;;;;;5000347;28;20441;-70
2023/06/26 02:40:14;;;;;;;;;;;;;;;;;;4993907;28;19925;-71
2023/06/26 02:43:01;;;;;;;;;;;;;;;;;;4995472;28;19922;-70
2023/06/26 02:45:47;;;;;;;;;;;;;;;;;;5001954;28;19925;-71
2023/06/26 02:48:34;;;;;;;;;;;;;;;;;;4993193;28;19920;-70
2023/06/26 02:51:20;;;;;;;;;;;;;;;;;;4994843;28;19921;-71
2023/06/26 02:54:07;;;;;;;;;;;;;;;;;;4993191;28;19922;-71
2023/06/26 02:56:53;;;;;;;;;;;;;;;;;;4995558;28;19922;-70
2023/06/26 02:59:40;;;;;;;;;;;;;;;;;;5012766;28;19925;-69
2023/06/26 03:02:26;;;;;;;;;;;;;;;;;;5002620;28;19921;-71
2023/06/26 03:05:13;;;;;;;;;;;;;;;;;;5004958;28;19924;-71
2023/06/26 03:07:59;;;;;;;;;;;;;;;;;;5000342;28;19921;-71
2023/06/26 03:10:46;;;;;;;;;;;;;;;;;;4998246;28;19927;-70
2023/06/26 03:13:32;;;;;;;;;;;;;;;;;;5000566;28;19914;-70
2023/06/26 03:16:19;;;;;;;;;;;;;;;;;;5003944;28;19953;-70
2023/06/26 03:19:05;;;;;;;;;;;;;;;;;;5006368;28;19937;-70
2023/06/26 03:21:52;;;;;;;;;;;;;;;;;;5009996;28;19921;-70
2023/06/26 03:24:38;;;;;;;;;;;;;;;;;;5013352;28;19932;-70
2023/06/26 03:27:25;;;;;;;;;;;;;;;;;;4996779;28;19939;-69
2023/06/26 03:30:12;;;;;;;;;;;;;;;;;;5012618;28;19917;-69
2023/06/26 03:32:58;;;;;;;;;;;;;;;;;;4994103;28;19922;-70
2023/06/26 03:35:45;;;;;;;;;;;;;;;;;;5002982;28;19921;-72
2023/06/26 03:38:31;;;;;;;;;;;;;;;;;;5008115;28;19926;-70
2023/06/26 03:41:18;;;;;;;;;;;;;;;;;;5012232;28;20456;-71
2023/06/26 03:44:04;;;;;;;;;;;;;;;;;;4989673;28;19922;-71
2023/06/26 03:46:51;;;;;;;;;;;;;;;;;;5007449;28;19929;-71
2023/06/26 03:49:37;;;;;;;;;;;;;;;;;;4987659;28;19926;-71
2023/06/26 03:52:23;;;;;;;;;;;;;;;;;;4996561;28;19926;-71
2023/06/26 03:55:10;;;;;;;;;;;;;;;;;;5004377;28;19928;-71
2023/06/26 03:57:56;;;;;;;;;;;;;;;;;;5006098;28;19929;-72
2023/06/26 04:00:43;;;;;;;;;;;;;;;;;;4998361;28;20400;-71
2023/06/26 04:03:30;;;;;;;;;;;;;;;;;;4996955;28;19921;-70
2023/06/26 04:06:16;;;;;;;;;;;;;;;;;;5008396;28;19944;-70
2023/06/26 04:09:04;;;;;;;;;;;;;;;;;;5009346;28;20411;-71
2023/06/26 04:11:50;;;;;;;;;;;;;;;;;;4997189;28;19918;-71
2023/06/26 04:14:37;;;;;;;;;;;;;;;;;;5005600;28;20574;-70
2023/06/26 04:17:23;;;;;;;;;;;;;;;;;;5007655;28;19918;-71
2023/06/26 04:20:10;;;;;;;;;;;;;;;;;;5009268;28;19930;-70
2023/06/26 04:22:56;;;;;;;;;;;;;;;;;;5009956;28;19922;-71
2023/06/26 04:25:43;;;;;;;;;;;;;;;;;;5002002;28;19950;-71
2023/06/26 04:28:29;;;;;;;;;;;;;;;;;;4999661;28;19929;-71
2023/06/26 04:31:16;;;;;;;;;;;;;;;;;;5004375;28;20282;-71
2023/06/26 04:34:02;;;;;;;;;;;;;;;;;;4994314;28;19918;-71
2023/06/26 04:36:50;;;;;;;;;;;;;;;;;;5004806;28;19926;-71
2023/06/26 04:39:37;;;;;;;;;;;;;;;;;;5013296;28;19935;-71
2023/06/26 04:42:23;;;;;;;;;;;;;;;;;;5003930;28;19920;-70
2023/06/26 04:45:10;;;;;;;;;;;;;;;;;;5005118;28;20397;-70
2023/06/26 04:47:56;;;;;;;;;;;;;;;;;;5005693;28;19918;-71
2023/06/26 04:50:43;;;;;;;;;;;;;;;;;;4996387;28;19928;-71
2023/06/26 04:53:29;;;;;;;;;;;;;;;;;;5004495;28;19913;-71
2023/06/26 04:56:16;;;;;;;;;;;;;;;;;;5001553;28;20505;-71
2023/06/26 04:59:02;;;;;;;;;;;;;;;;;;4995389;28;19928;-71
2023/06/26 05:01:49;;;;;;;;;;;;;;;;;;5003870;28;19933;-70
2023/06/26 05:04:35;;;;;;;;;;;;;;;;;;5005188;28;20495;-71
2023/06/26 05:07:22;;;;;;;;;;;;;;;;;;5005847;28;19928;-71
2023/06/26 05:10:08;;;;;;;;;;;;;;;;;;5002724;28;19921;-70
2023/06/26 05:12:55;;;;;;;;;;;;;;;;;;5009133;28;19926;-71
2023/06/26 05:15:42;;;;;;;;;;;;;;;;;;5010089;28;19921;-69
2023/06/26 05:18:28;;;;;;;;;;;;;;;;;;5008258;28;20028;-69
2023/06/26 05:21:15;;;;;;;;;;;;;;;;;;5000711;28;19922;-69
2023/06/26 05:24:01;;;;;;;;;;;;;;;;;;5005371;28;19922;-69
2023/06/26 05:26:48;;;;;;;;;;;;;;;;;;4997767;28;19934;-69
2023/06/26 05:29:34;;;;;;;;;;;;;;;;;;4990816;28;19928;-68
2023/06/26 05:32:21;;;;;;;;;;;;;;;;;;4997034;28;19922;-69
2023/06/26 05:35:07;;;;;;;;;;;;;;;;;;5002812;28;19921;-69
2023/06/26 05:37:54;;;;;;;;;;;;;;;;;;4995360;28;19928;-70
2023/06/26 05:40:40;;;;;;;;;;;;;;;;;;5004153;28;19926;-69
2023/06/26 05:43:26;;;;;;;;;;;;;;;;;;5003880;28;19921;-70
2023/06/26 05:46:13;;;;;;;;;;;;;;;;;;4997623;28;20444;-70
2023/06/26 05:49:01;;;;;;;;;;;;;;;;;;5002284;28;19928;-70
2023/06/26 05:51:47;;;;;;;;;;;;;;;;;;5003730;28;19921;-70
2023/06/26 05:54:34;;;;;;;;;;;;;;;;;;5003543;28;19932;-69
2023/06/26 05:57:20;;;;;;;;;;;;;;;;;;4999886;28;19924;-69
2023/06/26 06:00:10;;;;;;;;;;;;;;;;;;5001593;28;20021;-69
2023/06/26 06:02:56;;;;;;;;;;;;;;;;;;5002330;28;20487;-70
2023/06/26 06:05:43;;;;;;;;;;;;;;;;;;5000534;28;19928;-69
2023/06/26 06:08:29;;;;;;;;;;;;;;;;;;5010304;28;20598;-69
2023/06/26 06:11:16;;;;;;;;;;;;;;;;;;4997328;28;19924;-69
2023/06/26 06:14:02;;;;;;;;;;;;;;;;;;4992991;28;19926;-69
2023/06/26 06:16:49;;;;;;;;;;;;;;;;;;4996476;28;19952;-68
2023/06/26 06:19:35;;;;;;;;;;;;;;;;;;5008573;28;19972;-68
2023/06/26 06:22:22;;;;;;;;;;;;;;;;;;5006803;28;20478;-70
2023/06/26 06:25:08;;;;;;;;;;;;;;;;;;5006050;28;20369;-70
2023/06/26 06:27:55;;;;;;;;;;;;;;;;;;5008752;28;19929;-72
2023/06/26 06:30:41;;;;;;;;;;;;;;;;;;5006616;28;19928;-71
2023/06/26 06:33:28;;;;;;;;;;;;;;;;;;4995929;28;20412;-71
2023/06/26 06:36:14;;;;;;;;;;;;;;;;;;4991503;28;19922;-71
2023/06/26 06:39:01;;;;;;;;;;;;;;;;;;5004942;28;19926;-71
2023/06/26 06:41:47;;;;;;;;;;;;;;;;;;4992415;28;20531;-71
2023/06/26 06:44:34;;;;;;;;;;;;;;;;;;5004918;28;19925;-69
2023/06/26 06:47:20;;;;;;;;;;;;;;;;;;5008142;28;19922;-70
2023/06/26 06:50:10;;;;;;;;;;;;;;;;;;5000541;28;19921;-70
2023/06/26 06:52:56;;;;;;;;;;;;;;;;;;5001723;28;20429;-72
2023/06/26 06:55:43;;;;;;;;;;;;;;;;;;4989141;28;19917;-74
2023/06/26 06:58:33;;;;;;;;;;;;;;;;;;4999827;28;19932;-74
2023/06/26 07:01:20;;;;;;;;;;;;;;;;;;4997654;28;19917;-73
2023/06/26 07:04:06;;;;;;;;;;;;;;;;;;5001767;28;20293;-73
2023/06/26 07:06:53;;;;;;;;;;;;;;;;;;5000761;28;19917;-73
2023/06/26 07:09:39;;;;;;;;;;;;;;;;;;4999915;28;19921;-73
2023/06/26 07:12:26;;;;;;;;;;;;;;;;;;5003533;28;19923;-73
2023/06/26 07:15:12;;;;;;;;;;;;;;;;;;5003388;28;19917;-73
2023/06/26 07:17:59;;;;;;;;;;;;;;;;;;4999497;28;19926;-73
2023/06/26 07:20:45;;;;;;;;;;;;;;;;;;5012253;28;20403;-74
2023/06/26 07:23:32;;;;;;;;;;;;;;;;;;5006273;28;19925;-73
2023/06/26 07:26:18;;;;;;;;;;;;;;;;;;5005294;28;19929;-74
2023/06/26 07:29:05;;;;;;;;;;;;;;;;;;5010735;28;19925;-74
2023/06/26 07:31:51;;;;;;;;;;;;;;;;;;5002001;28;20397;-74
2023/06/26 07:34:38;;;;;;;;;;;;;;;;;;5014831;28;20208;-72
2023/06/26 07:37:24;;;;;;;;;;;;;;;;;;5006129;28;19960;-72
2023/06/26 07:40:11;;;;;;;;;;;;;;;;;;4996143;28;19988;-72
2023/06/26 07:42:58;;;;;;;;;;;;;;;;;;5011661;28;19921;-72
2023/06/26 07:45:44;;;;;;;;;;;;;;;;;;5007206;28;19921;-73
2023/06/26 07:48:31;;;;;;;;;;;;;;;;;;5011851;28;19922;-73
2023/06/26 07:51:17;;;;;;;;;;;;;;;;;;5007918;28;19924;-73
2023/06/26 07:54:04;;;;;;;;;;;;;;;;;;5003487;28;19924;-72
2023/06/26 07:56:50;;;;;;;;;;;;;;;;;;5004344;28;20399;-73
2023/06/26 07:59:37;;;;;;;;;;;;;;;;;;5012124;28;19921;-72
2023/06/26 08:02:23;;;;;;;;;;;;;;;;;;4991995;28;20029;-72
2023/06/26 08:05:10;;;;;;;;;;;;;;;;;;5007457;28;19932;-73
2023/06/26 08:07:56;;;;;;;;;;;;;;;;;;5002009;28;19921;-73
2023/06/26 08:10:43;;;;;;;;;;;;;;;;;;5009936;28;19927;-72
2023/06/26 08:13:29;;;;;;;;;;;;;;;;;;5010562;28;19926;-73
2023/06/26 08:16:16;;;;;;;;;;;;;;;;;;4998444;28;19972;-73
2023/06/26 08:19:02;;;;;;;;;;;;;;;;;;5009975;28;19935;-73
2023/06/26 08:21:49;;;;;;;;;;;;;;;;;;5008657;28;19927;-73
2023/06/26 08:24:36;;;;;;;;;;;;;;;;;;5002420;28;19948;-73
2023/06/26 08:27:23;;;;;;;;;;;;;;;;;;5009722;28;19935;-71
2023/06/26 08:30:09;;;;;;;;;;;;;;;;;;4991676;28;19919;-72
2023/06/26 08:32:56;;;;;;;;;;;;;;;;;;5000295;28;19930;-72
2023/06/26 08:35:42;;;;;;;;;;;;;;;;;;4993114;28;19925;-72
2023/06/26 08:38:29;;;;;;;;;;;;;;;;;;5005814;28;19917;-73
2023/06/26 08:41:15;;;;;;;;;;;;;;;;;;5007690;28;19926;-73
2023/06/26 08:44:02;;;;;;;;;;;;;;;;;;5003830;28;19944;-73
2023/06/26 08:46:49;;;;;;;;;;;;;;;;;;5003719;28;19918;-74
2023/06/26 08:49:35;;;;;;;;;;;;;;;;;;5007897;28;19921;-73
2023/06/26 08:52:22;;;;;;;;;;;;;;;;;;5002847;28;19939;-73
2023/06/26 08:55:08;;;;;;;;;;;;;;;;;;5001895;28;19924;-73
2023/06/26 08:57:55;;;;;;;;;;;;;;;;;;5003046;28;19923;-73
2023/06/26 09:00:41;;;;;;;;;;;;;;;;;;4995616;28;19936;-73
2023/06/26 09:03:28;;;;;;;;;;;;;;;;;;5004157;28;20298;-73
2023/06/26 09:06:14;;;;;;;;;;;;;;;;;;5004908;28;19921;-73
2023/06/26 09:09:01;;;;;;;;;;;;;;;;;;4998385;28;19933;-73
2023/06/26 09:11:47;;;;;;;;;;;;;;;;;;4992742;28;19928;-73
2023/06/26 09:14:34;;;;;;;;;;;;;;;;;;4992913;28;19924;-73
2023/06/26 09:17:20;;;;;;;;;;;;;;;;;;5001389;28;19917;-73
2023/06/26 09:20:08;;;;;;;;;;;;;;;;;;5001745;28;19929;-74
2023/06/26 09:22:55;;;;;;;;;;;;;;;;;;4998640;28;20173;-74
2023/06/26 09:25:42;;;;;;;;;;;;;;;;;;5007943;28;20507;-74
2023/06/26 09:28:29;;;;;;;;;;;;;;;;;;4995807;28;19936;-75
2023/06/26 09:31:15;;;;;;;;;;;;;;;;;;4993128;28;19918;-75
2023/06/26 09:34:05;;;;;;;;;;;;;;;;;;4993005;28;19922;-74
2023/06/26 09:36:52;;;;;;;;;;;;;;;;;;5004347;28;19918;-75
2023/06/26 09:39:39;;;;;;;;;;;;;;;;;;4989183;28;19926;-74
2023/06/26 09:42:25;;;;;;;;;;;;;;;;;;4998663;28;19917;-75
2023/06/26 09:45:12;;;;;;;;;;;;;;;;;;4997085;28;19921;-75
2023/06/26 09:47:58;;;;;;;;;;;;;;;;;;4991667;28;20175;-75
2023/06/26 09:50:44;;;;;;;;;;;;;;;;;;4994820;28;19918;-73
2023/06/26 09:53:32;;;;;;;;;;;;;;;;;;4995555;28;19920;-74
2023/06/26 09:56:18;;;;;;;;;;;;;;;;;;5005979;28;19921;-76
2023/06/26 09:59:05;;;;;;;;;;;;;;;;;;5005803;28;19932;-74
2023/06/26 10:01:51;;;;;;;;;;;;;;;;;;5005866;28;19933;-75
2023/06/26 10:04:38;;;;;;;;;;;;;;;;;;5008777;28;19921;-73
2023/06/26 10:07:24;;;;;;;;;;;;;;;;;;4996051;28;20297;-74
2023/06/26 10:10:11;;;;;;;;;;;;;;;;;;4995528;28;19925;-74
2023/06/26 10:12:57;;;;;;;;;;;;;;;;;;4992341;28;19918;-74
2023/06/26 10:15:44;;;;;;;;;;;;;;;;;;4993304;28;19926;-73
2023/06/26 10:18:30;;;;;;;;;;;;;;;;;;5004170;28;20389;-73
2023/06/26 10:21:17;;;;;;;;;;;;;;;;;;5005317;28;19951;-73
2023/06/26 10:24:03;;;;;;;;;;;;;;;;;;5000368;28;19924;-73
2023/06/26 10:26:50;;;;;;;;;;;;;;;;;;5001802;28;20179;-74
2023/06/26 10:29:36;;;;;;;;;;;;;;;;;;5000474;28;19921;-74
2023/06/26 10:32:22;;;;;;;;;;;;;;;;;;4993670;28;20428;-73
2023/06/26 10:35:09;;;;;;;;;;;;;;;;;;5007941;28;19928;-71
2023/06/26 10:37:56;;;;;;;;;;;;;;;;;;4997361;28;19932;-73
2023/06/26 10:40:42;;;;;;;;;;;;;;;;;;5007658;28;19921;-73
2023/06/26 10:43:29;;;;;;;;;;;;;;;;;;5004433;28;19921;-73
2023/06/26 10:46:15;;;;;;;;;;;;;;;;;;5003744;28;19921;-75
2023/06/26 10:49:03;;;;;;;;;;;;;;;;;;5008428;28;19929;-74
2023/06/26 10:51:49;;;;;;;;;;;;;;;;;;4999650;28;20551;-76
2023/06/26 10:54:36;;;;;;;;;;;;;;;;;;5008307;28;19921;-74
2023/06/26 10:57:22;;;;;;;;;;;;;;;;;;4992842;28;19917;-75
2023/06/26 11:00:10;;;;;;;;;;;;;;;;;;5005449;28;19964;-74
2023/06/26 11:02:56;;;;;;;;;;;;;;;;;;4989803;28;19932;-74
2023/06/26 11:05:43;;;;;;;;;;;;;;;;;;4997658;28;19960;-75
2023/06/26 11:08:29;;;;;;;;;;;;;;;;;;5007929;28;20395;-75
2023/06/26 11:11:16;;;;;;;;;;;;;;;;;;5004335;28;19925;-73
2023/06/26 11:14:02;;;;;;;;;;;;;;;;;;5005084;28;19921;-76
2023/06/26 11:16:49;;;;;;;;;;;;;;;;;;5006114;28;20316;-74
2023/06/26 11:19:35;;;;;;;;;;;;;;;;;;5010642;28;19929;-72
2023/06/26 11:22:22;;;;;;;;;;;;;;;;;;5014747;28;19926;-72
2023/06/26 11:25:08;;;;;;;;;;;;;;;;;;5016767;28;20299;-74
2023/06/26 11:27:55;;;;;;;;;;;;;;;;;;5009584;28;19929;-74
2023/06/26 11:30:41;;;;;;;;;;;;;;;;;;5010444;28;19929;-73
2023/06/26 11:33:28;;;;;;;;;;;;;;;;;;5009475;28;19917;-73
2023/06/26 11:36:14;;;;;;;;;;;;;;;;;;5010870;28;19928;-73
2023/06/26 11:39:01;;;;;;;;;;;;;;;;;;5011106;28;19945;-74
2023/06/26 11:41:48;;;;;;;;;;;;;;;;;;5006138;28;19918;-74
2023/06/26 11:44:34;;;;;;;;;;;;;;;;;;5005919;28;19917;-76
2023/06/26 11:47:22;;;;;;;;;;;;;;;;;;5006220;28;20389;-75
2023/06/26 11:50:08;;;;;;;;;;;;;;;;;;5006144;28;19925;-74
2023/06/26 11:52:55;;;;;;;;;;;;;;;;;;5010172;28;20377;-75
2023/06/26 11:55:43;;;;;;;;;;;;;;;;;;5016253;28;19927;-75
2023/06/26 11:58:29;;;;;;;;;;;;;;;;;;5005448;28;20015;-75
2023/06/26 12:01:16;;;;;;;;;;;;;;;;;;5003771;28;19937;-75
2023/06/26 12:04:03;;;;;;;;;;;;;;;;;;5016474;28;20309;-75
2023/06/26 12:06:49;;;;;;;;;;;;;;;;;;5010570;28;19925;-75
2023/06/26 12:09:36;;;;;;;;;;;;;;;;;;5012455;28;19921;-74
2023/06/26 12:12:22;;;;;;;;;;;;;;;;;;5010000;28;19941;-75
2023/06/26 12:15:09;;;;;;;;;;;;;;;;;;4997101;28;20366;-74
2023/06/26 12:17:55;;;;;;;;;;;;;;;;;;5002582;28;19918;-75
2023/06/26 12:20:42;;;;;;;;;;;;;;;;;;5007720;28;20468;-75
2023/06/26 12:23:28;;;;;;;;;;;;;;;;;;5009160;28;19923;-75
2023/06/26 12:26:14;;;;;;;;;;;;;;;;;;5004652;28;19949;-75
2023/06/26 12:29:01;;;;;;;;;;;;;;;;;;5005751;28;19917;-75
2023/06/26 12:31:47;;;;;;;;;;;;;;;;;;5011601;28;19928;-76
2023/06/26 12:34:34;;;;;;;;;;;;;;;;;;5013826;28;19917;-75
2023/06/26 12:37:20;;;;;;;;;;;;;;;;;;5012219;28;20360;-75
2023/06/26 12:40:07;;;;;;;;;;;;;;;;;;4996318;28;20345;-75
2023/06/26 12:42:54;;;;;;;;;;;;;;;;;;5016782;28;19936;-74
2023/06/26 12:45:43;;;;;;;;;;;;;;;;;;4995131;28;20300;-84
2023/06/26 12:48:30;;;;;;;;;;;;;;;;;;5004944;28;20819;-83
2023/06/26 12:51:16;;;;;;;;;;;;;;;;;;5010244;28;19937;-82
2023/06/26 12:54:03;;;;;;;;;;;;;;;;;;5005896;28;20289;-85
2023/06/26 12:56:49;;;;;;;;;;;;;;;;;;5003540;28;19917;-83
2023/06/26 12:59:36;;;;;;;;;;;;;;;;;;5010604;28;19932;-76
2023/06/26 13:02:22;;;;;;;;;;;;;;;;;;5011685;28;19928;-77
2023/06/26 13:05:09;;;;;;;;;;;;;;;;;;5010660;28;20395;-77
2023/06/26 13:07:56;;;;;;;;;;;;;;;;;;5008836;28;19929;-77
2023/06/26 13:10:42;;;;;;;;;;;;;;;;;;5005858;28;19918;-76
2023/06/26 13:13:29;;;;;;;;;;;;;;;;;;4999143;28;19928;-76
2023/06/26 13:16:16;;;;;;;;;;;;;;;;;;5000752;28;19922;-77
2023/06/26 13:19:02;;;;;;;;;;;;;;;;;;5008148;28;19928;-76
2023/06/26 13:21:49;;;;;;;;;;;;;;;;;;5003263;28;19926;-76
2023/06/26 13:24:35;;;;;;;;;;;;;;;;;;5004375;28;19921;-76
2023/06/26 13:27:22;;;;;;;;;;;;;;;;;;4999014;28;19929;-76
2023/06/26 13:30:08;;;;;;;;;;;;;;;;;;4997132;28;20040;-76
2023/06/26 13:32:55;;;;;;;;;;;;;;;;;;4995007;28;19921;-76
2023/06/26 13:35:41;;;;;;;;;;;;;;;;;;5005713;28;19926;-75
2023/06/26 13:38:27;;;;;;;;;;;;;;;;;;4999594;28;19924;-76
2023/06/26 13:41:14;;;;;;;;;;;;;;;;;;5003201;28;19929;-76
2023/06/26 13:44:00;;;;;;;;;;;;;;;;;;4991826;28;19917;-76
2023/06/26 13:46:47;;;;;;;;;;;;;;;;;;4997401;28;19926;-77
2023/06/26 13:49:33;;;;;;;;;;;;;;;;;;5012527;28;19929;-76
2023/06/26 13:52:20;;;;;;;;;;;;;;;;;;5010120;28;19924;-77
2023/06/26 13:55:07;;;;;;;;;;;;;;;;;;5006733;28;20123;-76
2023/06/26 13:57:53;;;;;;;;;;;;;;;;;;4996747;28;20452;-76
2023/06/26 14:00:40;;;;;;;;;;;;;;;;;;5011447;28;19929;-77
2023/06/26 14:03:30;;;;;;;;;;;;;;;;;;5007792;28;19947;-76
2023/06/26 14:06:16;;;;;;;;;;;;;;;;;;5001799;28;19962;-75
2023/06/26 14:09:03;;;;;;;;;;;;;;;;;;5008033;28;19968;-75
2023/06/26 14:11:50;;;;;;;;;;;;;;;;;;5003528;28;19914;-76
2023/06/26 14:14:36;;;;;;;;;;;;;;;;;;5007979;28;19929;-76
2023/06/26 14:17:25;;;;;;;;;;;;;;;;;;5006842;28;19921;-77
2023/06/26 14:20:16;;;;;;;;;;;;;;;;;;5001227;28;20313;-77
2023/06/26 14:23:02;;;;;;;;;;;;;;;;;;5001093;28;19941;-77
2023/06/26 14:25:48;;;;;;;;;;;;;;;;;;5001234;28;20412;-77
2023/06/26 14:28:35;;;;;;;;;;;;;;;;;;5001663;28;19928;-78
2023/06/26 14:31:22;;;;;;;;;;;;;;;;;;5003640;28;19921;-77
2023/06/26 14:34:08;;;;;;;;;;;;;;;;;;4992815;28;19928;-77
2023/06/26 14:36:55;;;;;;;;;;;;;;;;;;4996948;28;20281;-78
2023/06/26 14:39:41;;;;;;;;;;;;;;;;;;4996503;28;19926;-78
2023/06/26 14:42:28;;;;;;;;;;;;;;;;;;5007956;28;19936;-77
2023/06/26 14:45:14;;;;;;;;;;;;;;;;;;4995875;28;19929;-78
2023/06/26 14:48:00;;;;;;;;;;;;;;;;;;5004668;28;20464;-78
2023/06/26 14:50:47;;;;;;;;;;;;;;;;;;4999545;28;19955;-78
2023/06/26 14:53:33;;;;;;;;;;;;;;;;;;5002437;28;19969;-78
2023/06/26 14:56:20;;;;;;;;;;;;;;;;;;5000197;28;19931;-78
2023/06/26 14:59:07;;;;;;;;;;;;;;;;;;4996835;28;20739;-78
2023/06/26 15:01:53;;;;;;;;;;;;;;;;;;4996837;28;19925;-78
2023/06/26 15:04:40;;;;;;;;;;;;;;;;;;4997776;28;19933;-78
2023/06/26 15:07:26;;;;;;;;;;;;;;;;;;5000650;28;19929;-77
2023/06/26 15:10:13;;;;;;;;;;;;;;;;;;5002677;28;19992;-76
2023/06/26 15:12:59;;;;;;;;;;;;;;;;;;5000954;28;19921;-76
2023/06/26 15:15:46;;;;;;;;;;;;;;;;;;5002081;28;20434;-79
2023/06/26 15:18:32;;;;;;;;;;;;;;;;;;5001992;28;19926;-80
2023/06/26 15:21:19;;;;;;;;;;;;;;;;;;5000930;28;19937;-80
2023/06/26 15:24:05;;;;;;;;;;;;;;;;;;5001939;28;19925;-80
2023/06/26 15:26:52;;;;;;;;;;;;;;;;;;5001731;28;19933;-80
2023/06/26 15:29:38;;;;;;;;;;;;;;;;;;4996474;28;20378;-77
2023/06/26 15:32:25;;;;;;;;;;;;;;;;;;5000120;28;19925;-77
2023/06/26 15:35:11;;;;;;;;;;;;;;;;;;4985311;28;20440;-77
2023/06/26 15:37:58;;;;;;;;;;;;;;;;;;4999382;28;19922;-76
2023/06/26 15:40:44;;;;;;;;;;;;;;;;;;5003353;28;19940;-76
2023/06/26 15:43:30;;;;;;;;;;;;;;;;;;4989513;28;19928;-76
2023/06/26 15:46:17;;;;;;;;;;;;;;;;;;5002698;28;19926;-76
2023/06/26 15:49:03;;;;;;;;;;;;;;;;;;5002274;28;20007;-75
2023/06/26 15:51:50;;;;;;;;;;;;;;;;;;4994729;28;19918;-77
2023/06/26 15:54:37;;;;;;;;;;;;;;;;;;5000956;28;19933;-77
2023/06/26 15:57:24;;;;;;;;;;;;;;;;;;5004579;28;20006;-76
2023/06/26 16:00:12;;;;;;;;;;;;;;;;;;4999971;28;20548;-76
2023/06/26 16:02:58;;;;;;;;;;;;;;;;;;5003093;28;19936;-76
2023/06/26 16:05:45;;;;;;;;;;;;;;;;;;5004266;28;19924;-76
2023/06/26 16:08:31;;;;;;;;;;;;;;;;;;5001962;28;19944;-77
2023/06/26 16:11:17;;;;;;;;;;;;;;;;;;5005582;28;19925;-78
2023/06/26 16:14:04;;;;;;;;;;;;;;;;;;5002094;28;19922;-78
2023/06/26 16:16:50;;;;;;;;;;;;;;;;;;5001563;28;19941;-78
2023/06/26 16:19:37;;;;;;;;;;;;;;;;;;5001449;28;19924;-77
2023/06/26 16:22:23;;;;;;;;;;;;;;;;;;5002514;28;20273;-78
2023/06/26 16:25:10;;;;;;;;;;;;;;;;;;5001970;28;19921;-76
2023/06/26 16:27:57;;;;;;;;;;;;;;;;;;5002748;28;20580;-76
2023/06/26 16:30:43;;;;;;;;;;;;;;;;;;4996255;28;19924;-76
2023/06/26 16:33:32;;;;;;;;;;;;;;;;;;5001382;28;24365;-76
2023/06/26 16:36:18;;;;;;;;;;;;;;;;;;5003779;28;20316;-78
2023/06/26 16:39:05;;;;;;;;;;;;;;;;;;4997030;28;19924;-77
2023/06/26 16:41:54;;;;;;;;;;;;;;;;;;5002347;28;19933;-78
2023/06/26 16:44:40;;;;;;;;;;;;;;;;;;5004613;28;19921;-76
2023/06/26 16:47:28;;;;;;;;;;;;;;;;;;5003778;28;20068;-77
2023/06/26 16:50:14;;;;;;;;;;;;;;;;;;4999042;28;19918;-76
2023/06/26 16:53:01;;;;;;;;;;;;;;;;;;5000252;28;20397;-77
2023/06/26 16:55:48;;;;;;;;;;;;;;;;;;5002598;28;19929;-77
2023/06/26 16:58:34;;;;;;;;;;;;;;;;;;5003139;28;19921;-77
2023/06/26 17:01:21;;;;;;;;;;;;;;;;;;4999907;28;19934;-77
2023/06/26 17:04:07;;;;;;;;;;;;;;;;;;4997057;28;20407;-77
2023/06/26 17:06:54;;;;;;;;;;;;;;;;;;5003340;28;19914;-77
2023/06/26 17:09:40;;;;;;;;;;;;;;;;;;5001522;28;19921;-76
2023/06/26 17:12:27;;;;;;;;;;;;;;;;;;5006699;28;19921;-79
2023/06/26 17:15:13;;;;;;;;;;;;;;;;;;5002191;28;20396;-76
2023/06/26 17:18:00;;;;;;;;;;;;;;;;;;4996911;28;19921;-76
2023/06/26 17:20:46;;;;;;;;;;;;;;;;;;4999005;28;20382;-77
2023/06/26 17:23:33;;;;;;;;;;;;;;;;;;4997414;28;19925;-77
2023/06/26 17:26:19;;;;;;;;;;;;;;;;;;4997341;28;19929;-77
2023/06/26 17:29:06;;;;;;;;;;;;;;;;;;4998626;28;22811;-78
2023/06/26 17:31:52;;;;;;;;;;;;;;;;;;5003360;28;19928;-77
2023/06/26 17:34:39;;;;;;;;;;;;;;;;;;5002550;28;20502;-76
2023/06/26 17:37:28;;;;;;;;;;;;;;;;;;4995558;28;19926;-77
2023/06/26 17:40:15;;;;;;;;;;;;;;;;;;5000043;28;20009;-77
2023/06/26 17:43:02;;;;;;;;;;;;;;;;;;4990243;28;20057;-77
2023/06/26 17:45:48;;;;;;;;;;;;;;;;;;4990939;28;19926;-77
2023/06/26 17:48:35;;;;;;;;;;;;;;;;;;5001757;28;19934;-78
2023/06/26 17:51:21;;;;;;;;;;;;;;;;;;5003464;28;19928;-77
2023/06/26 17:54:08;;;;;;;;;;;;;;;;;;5000545;28;20440;-77
2023/06/26 17:56:54;;;;;;;;;;;;;;;;;;5006065;28;19925;-79
2023/06/26 17:59:41;;;;;;;;;;;;;;;;;;5000027;28;19929;-77
2023/06/26 18:02:27;;;;;;;;;;;;;;;;;;4998381;28;19929;-77
2023/06/26 18:05:14;;;;;;;;;;;;;;;;;;5000589;28;19924;-76
2023/06/26 18:08:00;;;;;;;;;;;;;;;;;;4998504;28;19918;-77
2023/06/26 18:10:47;;;;;;;;;;;;;;;;;;5000962;28;19917;-77
2023/06/26 18:13:33;;;;;;;;;;;;;;;;;;4986976;28;19931;-77
2023/06/26 18:16:20;;;;;;;;;;;;;;;;;;5000694;28;19937;-79
2023/06/26 18:25:18;;;;;;;;;;;;;;;;;;4999860;28;19922;-78
2023/06/26 18:28:04;;;;;;;;;;;;;;;;;;4997482;28;19929;-78
2023/06/26 18:30:50;;;;;;;;;;;;;;;;;;4993047;28;19948;-79
2023/06/26 18:33:37;;;;;;;;;;;;;;;;;;4997416;28;19930;-78
2023/06/26 18:36:24;;;;;;;;;;;;;;;;;;4998781;28;19918;-78
2023/06/26 18:39:11;;;;;;;;;;;;;;;;;;4995462;28;19918;-79
2023/06/26 18:41:58;;;;;;;;;;;;;;;;;;4998782;28;19933;-79
2023/06/26 18:44:44;;;;;;;;;;;;;;;;;;4997804;28;19924;-79
2023/06/26 18:47:31;;;;;;;;;;;;;;;;;;4995741;28;20285;-78
2023/06/26 18:50:19;;;;;;;;;;;;;;;;;;4994497;28;19922;-79
2023/06/26 18:53:05;;;;;;;;;;;;;;;;;;4986763;28;19921;-78
2023/06/26 18:55:52;;;;;;;;;;;;;;;;;;4993265;28;19918;-78
2023/06/26 18:58:38;;;;;;;;;;;;;;;;;;4995405;28;19936;-78
2023/06/26 19:01:25;;;;;;;;;;;;;;;;;;4996329;28;20385;-77
2023/06/26 19:04:11;;;;;;;;;;;;;;;;;;4999293;28;20305;-77